createdAt,value
2018-07-12T00:01:37.813Z,3.45
2018-07-12T00:04:11.192Z,3.60
2018-07-12T00:06:44.303Z,3.10
2018-07-12T00:09:18.307Z,3.20
2018-07-12T00:11:51.647Z,3.42
2018-07-12T00:14:24.840Z,3.40
2018-07-12T00:16:58.085Z,3.40
2018-07-12T00:19:31.257Z,3.08
2018-07-12T00:22:05.287Z,3.30
2018-07-12T00:24:38.561Z,3.33
2018-07-12T00:27:12.590Z,3.25
2018-07-12T00:29:46.004Z,2.90
2018-07-12T00:32:19.989Z,3.28
2018-07-12T00:34:53.877Z,2.80
2018-07-12T00:37:27.232Z,3.28
2018-07-12T00:40:00.709Z,3.58
2018-07-12T00:42:33.993Z,4.53
2018-07-12T00:45:07.231Z,3.40
2018-07-12T00:47:40.421Z,3.00
2018-07-12T00:50:13.774Z,3.55
2018-07-12T00:52:47.783Z,3.47
2018-07-12T00:55:21.016Z,3.50
2018-07-12T00:57:54.193Z,3.58
2018-07-12T01:00:27.468Z,3.70
2018-07-12T01:03:00.626Z,3.22
2018-07-12T01:05:33.749Z,3.47
2018-07-12T01:08:07.055Z,3.60
2018-07-12T01:10:40.304Z,3.42
2018-07-12T01:13:14.330Z,4.95
2018-07-12T01:15:47.679Z,3.67
2018-07-12T01:18:20.864Z,3.97
2018-07-12T01:20:54.800Z,3.40
2018-07-12T01:23:28.243Z,3.37
2018-07-12T01:26:01.544Z,4.53
2018-07-12T01:28:35.647Z,3.65
2018-07-12T01:31:09.000Z,3.65
2018-07-12T01:33:42.274Z,3.50
2018-07-12T01:36:15.565Z,3.60
2018-07-12T01:38:49.512Z,3.45
2018-07-12T01:41:22.765Z,4.00
2018-07-12T01:43:55.975Z,3.58
2018-07-12T01:46:29.119Z,3.67
2018-07-12T01:49:02.437Z,4.03
2018-07-12T01:51:36.489Z,4.22
2018-07-12T01:54:10.411Z,3.65
2018-07-12T01:56:43.816Z,3.67
2018-07-12T01:59:17.935Z,3.87
2018-07-12T02:01:51.854Z,3.45
2018-07-12T02:04:25.060Z,3.08
2018-07-12T02:06:58.423Z,3.30
2018-07-12T02:09:31.617Z,3.20
2018-07-12T02:12:04.842Z,3.75
2018-07-12T02:14:38.827Z,3.40
2018-07-12T02:17:12.208Z,3.62
2018-07-12T02:19:45.402Z,3.97
2018-07-12T02:22:19.394Z,4.20
2018-07-12T02:24:52.852Z,4.28
2018-07-12T02:27:26.939Z,3.97
2018-07-12T02:30:00.334Z,4.00
2018-07-12T02:32:33.612Z,3.97
2018-07-12T02:35:06.993Z,3.50
2018-07-12T02:37:40.132Z,3.92
2018-07-12T02:40:13.437Z,3.85
2018-07-12T02:42:46.645Z,4.30
2018-07-12T02:45:19.870Z,3.75
2018-07-12T02:47:52.989Z,3.65
2018-07-12T02:50:26.356Z,3.55
2018-07-12T02:53:00.404Z,3.53
2018-07-12T02:55:33.657Z,3.95
2018-07-12T02:58:06.769Z,6.55
2018-07-12T03:00:39.988Z,3.75
2018-07-12T03:03:13.229Z,3.80
2018-07-12T03:05:46.421Z,3.62
2018-07-12T03:08:20.468Z,4.87
2018-07-12T03:10:53.833Z,5.30
2018-07-12T03:13:27.091Z,4.93
2018-07-12T03:16:00.397Z,5.30
2018-07-12T03:18:34.444Z,5.22
2018-07-12T03:21:07.688Z,4.70
2018-07-12T03:23:40.986Z,4.93
2018-07-12T03:26:14.264Z,5.53
2018-07-12T03:28:48.356Z,5.78
2018-07-12T03:31:21.490Z,4.65
2018-07-12T03:33:54.774Z,4.60
2018-07-12T03:36:28.761Z,5.05
2018-07-12T03:39:02.088Z,4.90
2018-07-12T03:41:35.261Z,4.70
2018-07-12T03:44:08.561Z,5.47
2018-07-12T03:46:42.685Z,5.18
2018-07-12T03:49:16.044Z,5.18
2018-07-12T03:51:49.434Z,5.00
2018-07-12T03:54:22.678Z,5.12
2018-07-12T03:56:55.964Z,5.25
2018-07-12T03:59:29.137Z,5.47
2018-07-12T04:02:03.105Z,6.40
2018-07-12T04:04:36.514Z,6.97
2018-07-12T04:07:09.921Z,5.47
2018-07-12T04:09:43.210Z,5.22
2018-07-12T04:12:17.318Z,6.28
2018-07-12T04:14:51.339Z,4.70
2018-07-12T04:17:24.690Z,5.60
2018-07-12T04:19:57.854Z,5.20
2018-07-12T04:22:31.146Z,5.65
2018-07-12T04:25:04.378Z,5.25
2018-07-12T04:27:37.581Z,6.30
2018-07-12T04:30:10.863Z,4.87
2018-07-12T04:32:44.104Z,4.80
2018-07-12T04:35:17.389Z,5.43
2018-07-12T04:37:50.712Z,5.35
2018-07-12T04:40:25.503Z,7.00
2018-07-12T04:42:58.710Z,5.18
2018-07-12T04:45:31.901Z,5.28
2018-07-12T04:48:05.148Z,5.22
2018-07-12T04:50:38.590Z,5.80
2018-07-12T04:53:11.900Z,5.30
2018-07-12T04:55:45.840Z,5.22
2018-07-12T04:58:19.587Z,5.20
2018-07-12T05:00:52.987Z,5.90
2018-07-12T05:03:26.409Z,5.15
2018-07-12T05:05:59.826Z,5.78
2018-07-12T05:08:34.287Z,5.95
2018-07-12T05:11:07.885Z,5.50
2018-07-12T05:13:41.071Z,6.30
2018-07-12T05:16:14.473Z,6.07
2018-07-12T05:18:47.765Z,6.20
2018-07-12T05:21:21.690Z,5.60
2018-07-12T05:23:55.076Z,6.12
2018-07-12T05:26:28.279Z,5.70
2018-07-12T05:29:02.288Z,6.47
2018-07-12T05:31:35.674Z,6.55
2018-07-12T05:34:09.587Z,6.32
2018-07-12T05:36:43.367Z,7.25
2018-07-12T05:39:17.148Z,7.62
2018-07-12T05:41:50.710Z,6.62
2018-07-12T05:44:24.500Z,9.15
2018-07-12T05:46:58.317Z,8.10
2018-07-12T05:49:32.061Z,6.10
2018-07-12T05:52:05.892Z,6.53
2018-07-12T05:54:39.559Z,6.22
2018-07-12T05:57:13.273Z,5.90
2018-07-12T05:59:47.078Z,6.10
2018-07-12T06:02:20.748Z,6.10
2018-07-12T06:04:54.516Z,6.53
2018-07-12T06:07:28.952Z,7.10
2018-07-12T06:10:02.747Z,6.65
2018-07-12T06:12:36.476Z,16.50
2018-07-12T06:15:10.275Z,7.30
2018-07-12T06:17:43.988Z,8.32
2018-07-12T06:20:17.886Z,10.35
2018-07-12T06:22:51.573Z,10.43
2018-07-12T06:25:25.637Z,12.00
2018-07-12T06:27:59.520Z,14.27
2018-07-12T06:30:34.083Z,12.55
2018-07-12T06:33:07.869Z,11.45
2018-07-12T06:35:41.772Z,9.60
2018-07-12T06:38:15.473Z,9.20
2018-07-12T06:40:49.399Z,12.50
2018-07-12T06:43:23.955Z,8.38
2018-07-12T06:45:57.821Z,9.05
2018-07-12T06:48:31.747Z,9.00
2018-07-12T06:51:06.308Z,7.85
2018-07-12T06:53:40.057Z,7.28
2018-07-12T06:56:13.829Z,6.70
2018-07-12T06:58:48.492Z,10.07
2018-07-12T07:01:22.301Z,7.10
2018-07-12T07:03:56.145Z,6.75
2018-07-12T07:06:30.671Z,7.90
2018-07-12T07:09:05.247Z,7.60
2018-07-12T07:11:39.796Z,8.45
2018-07-12T07:14:14.383Z,11.35
2018-07-12T07:16:48.871Z,10.45
2018-07-12T07:19:23.408Z,10.18
2018-07-12T07:21:57.136Z,10.10
2018-07-12T07:24:30.924Z,10.65
2018-07-12T07:27:05.025Z,9.23
2018-07-12T07:29:38.804Z,9.80
2018-07-12T07:32:13.373Z,11.57
2018-07-12T07:34:47.050Z,12.32
2018-07-12T07:37:21.683Z,10.63
2018-07-12T07:39:55.508Z,10.32
2018-07-12T07:42:29.113Z,10.90
2018-07-12T07:45:02.921Z,10.90
2018-07-12T07:47:37.531Z,11.05
2018-07-12T07:50:12.061Z,11.40
2018-07-12T07:52:46.700Z,10.30
2018-07-12T07:55:20.384Z,12.25
2018-07-12T07:57:55.016Z,12.45
2018-07-12T08:00:28.596Z,11.10
2018-07-12T08:03:02.405Z,11.75
2018-07-12T08:05:37.020Z,12.85
2018-07-12T08:08:10.621Z,11.73
2018-07-12T08:10:44.309Z,11.52
2018-07-12T08:13:18.296Z,11.48
2018-07-12T08:15:51.923Z,12.55
2018-07-12T08:18:25.843Z,11.88
2018-07-12T08:20:59.718Z,12.25
2018-07-12T08:23:33.568Z,11.65
2018-07-12T08:26:07.376Z,11.93
2018-07-12T08:28:41.133Z,11.40
2018-07-12T08:31:14.954Z,11.75
2018-07-12T08:33:49.428Z,11.20
2018-07-12T08:36:23.126Z,11.15
2018-07-12T08:38:56.801Z,10.90
2018-07-12T08:41:30.535Z,10.10
2018-07-12T08:44:04.361Z,9.73
2018-07-12T08:46:38.054Z,8.40
2018-07-12T08:49:12.736Z,8.60
2018-07-12T08:51:46.381Z,8.07
2018-07-12T08:54:20.191Z,7.83
2018-07-12T08:56:54.238Z,8.43
2018-07-12T08:59:28.336Z,8.60
2018-07-12T09:02:02.088Z,8.50
2018-07-12T09:04:35.948Z,7.97
2018-07-12T09:07:09.826Z,7.97
2018-07-12T09:09:43.469Z,7.07
2018-07-12T09:12:17.461Z,8.23
2018-07-12T09:14:51.074Z,7.07
2018-07-12T09:17:24.976Z,8.20
2018-07-12T09:19:58.820Z,8.20
2018-07-12T09:22:32.558Z,8.00
2018-07-12T09:25:06.260Z,8.43
2018-07-12T09:27:40.051Z,7.77
2018-07-12T09:30:13.936Z,8.10
2018-07-12T09:32:48.647Z,7.80
2018-07-12T09:35:22.402Z,8.27
2018-07-12T09:37:56.969Z,8.47
2018-07-12T09:40:30.687Z,8.00
2018-07-12T09:43:05.347Z,8.27
2018-07-12T09:45:39.083Z,8.10
2018-07-12T09:48:13.641Z,7.93
2018-07-12T09:50:48.357Z,8.50
2018-07-12T09:53:22.148Z,6.50
2018-07-12T09:55:56.000Z,7.73
2018-07-12T09:58:30.524Z,6.57
2018-07-12T10:01:04.126Z,6.10
2018-07-12T10:03:37.869Z,6.67
2018-07-12T10:06:12.437Z,8.83
2018-07-12T10:08:46.324Z,5.50
2018-07-12T10:11:20.108Z,6.00
2018-07-12T10:13:54.777Z,5.60
2018-07-12T10:16:28.535Z,6.23
2018-07-12T10:19:02.255Z,6.50
2018-07-12T10:21:35.863Z,5.87
2018-07-12T10:24:10.049Z,6.00
2018-07-12T10:26:43.816Z,6.00
2018-07-12T10:29:18.467Z,6.30
2018-07-12T10:31:53.046Z,6.70
2018-07-12T10:34:28.207Z,7.73
2018-07-12T10:37:02.836Z,5.70
2018-07-12T10:39:37.359Z,5.23
2018-07-12T10:42:11.052Z,5.00
2018-07-12T10:44:45.599Z,5.13
2018-07-12T10:47:19.358Z,4.97
2018-07-12T10:49:53.009Z,5.17
2018-07-12T10:52:26.629Z,5.43
2018-07-12T10:55:00.494Z,6.03
2018-07-12T10:57:35.145Z,7.00
2018-07-12T11:00:09.433Z,6.87
2018-07-12T11:02:43.100Z,5.80
2018-07-12T11:05:17.733Z,6.90
2018-07-12T11:07:51.567Z,6.70
2018-07-12T11:10:25.320Z,5.40
2018-07-12T11:12:59.119Z,5.83
2018-07-12T11:15:32.965Z,5.53
2018-07-12T11:18:06.844Z,5.50
2018-07-12T11:20:40.656Z,5.43
2018-07-12T11:23:15.250Z,6.03
2018-07-12T11:25:49.062Z,7.30
2018-07-12T11:28:22.923Z,5.50
2018-07-12T11:30:57.560Z,5.83
2018-07-12T11:33:32.308Z,5.50
2018-07-12T11:36:06.859Z,5.73
2018-07-12T11:38:41.248Z,6.20
2018-07-12T11:41:15.104Z,6.23
2018-07-12T11:43:48.892Z,5.97
2018-07-12T11:46:22.699Z,6.60
2018-07-12T11:48:56.445Z,7.13
2018-07-12T11:51:31.118Z,6.60
2018-07-12T11:54:05.613Z,7.67
2018-07-12T11:56:39.377Z,8.37
2018-07-12T11:59:13.019Z,7.20
2018-07-12T12:01:46.865Z,7.00
2018-07-12T12:04:21.553Z,6.43
2018-07-12T12:06:55.252Z,6.60
2018-07-12T12:09:29.007Z,6.53
2018-07-12T12:12:02.704Z,7.40
2018-07-12T12:14:36.511Z,6.43
2018-07-12T12:17:10.288Z,6.40
2018-07-12T12:19:44.929Z,6.60
2018-07-12T12:22:19.328Z,7.00
2018-07-12T12:24:53.973Z,5.83
2018-07-12T12:27:28.741Z,6.10
2018-07-12T12:30:02.637Z,6.90
2018-07-12T12:32:36.425Z,26.27
2018-07-12T12:35:11.067Z,6.57
2018-07-12T12:37:45.488Z,6.17
2018-07-12T12:40:20.167Z,7.97
2018-07-12T12:42:54.046Z,5.67
2018-07-12T12:45:27.834Z,6.43
2018-07-12T12:48:01.633Z,6.80
2018-07-12T12:50:36.128Z,7.40
2018-07-12T12:53:09.946Z,6.70
2018-07-12T12:55:43.650Z,7.40
2018-07-12T12:58:17.472Z,7.53
2018-07-12T13:00:51.349Z,8.40
2018-07-12T13:03:25.985Z,6.27
2018-07-12T13:05:59.755Z,5.43
2018-07-12T13:08:35.986Z,5.93
2018-07-12T13:11:09.751Z,6.00
2018-07-12T13:13:44.972Z,5.80
2018-07-12T13:16:18.599Z,5.67
2018-07-12T13:18:52.357Z,6.30
2018-07-12T13:21:26.267Z,5.60
2018-07-12T13:24:00.031Z,7.00
2018-07-12T13:26:34.557Z,6.40
2018-07-12T13:29:08.285Z,6.63
2018-07-12T13:31:42.858Z,6.07
2018-07-12T13:34:16.681Z,6.50
2018-07-12T13:36:51.296Z,5.60
2018-07-12T13:39:25.252Z,6.07
2018-07-12T13:41:59.035Z,6.33
2018-07-12T13:44:32.693Z,6.33
2018-07-12T13:47:06.575Z,5.67
2018-07-12T13:49:41.122Z,6.10
2018-07-12T13:52:15.803Z,6.37
2018-07-12T13:54:49.543Z,6.03
2018-07-12T13:57:23.254Z,6.00
2018-07-12T13:59:57.124Z,5.50
2018-07-12T14:02:30.820Z,6.10
2018-07-12T14:08:04.307Z,5.50
2018-07-12T14:10:38.132Z,5.43
2018-07-12T14:13:12.650Z,4.83
2018-07-12T14:15:46.298Z,5.40
2018-07-12T14:18:20.767Z,4.07
2018-07-12T14:20:54.504Z,4.10
2018-07-12T14:23:29.102Z,4.57
2018-07-12T14:26:02.955Z,4.70
2018-07-12T14:28:36.720Z,6.70
2018-07-12T14:31:10.440Z,4.73
2018-07-12T14:33:44.250Z,5.57
2018-07-12T14:36:17.952Z,4.73
2018-07-12T14:38:51.812Z,5.57
2018-07-12T14:41:25.437Z,5.27
2018-07-12T14:43:59.159Z,5.10
2018-07-12T14:46:32.868Z,5.87
2018-07-12T14:49:06.732Z,4.80
2018-07-12T14:51:41.065Z,5.53
2018-07-12T14:54:15.655Z,4.50
2018-07-12T14:56:49.382Z,5.13
2018-07-12T14:59:23.044Z,5.67
2018-07-12T15:01:58.118Z,3.93
2018-07-12T15:04:31.958Z,4.87
2018-07-12T15:07:05.725Z,5.23
2018-07-12T15:09:39.567Z,4.23
2018-07-12T15:12:13.159Z,4.57
2018-07-12T15:14:47.379Z,4.77
2018-07-12T15:17:21.699Z,4.47
2018-07-12T15:19:56.120Z,4.80
2018-07-12T15:22:30.968Z,4.83
2018-07-12T15:25:05.287Z,4.77
2018-07-12T15:27:39.459Z,6.20
2018-07-12T15:30:13.977Z,4.50
2018-07-12T15:32:48.444Z,4.67
2018-07-12T15:35:22.136Z,3.97
2018-07-12T15:37:55.969Z,4.13
2018-07-12T15:40:29.776Z,3.60
2018-07-12T15:43:04.244Z,4.90
2018-07-12T15:45:38.860Z,4.73
2018-07-12T15:48:12.690Z,3.20
2018-07-12T15:50:46.504Z,4.53
2018-07-12T15:53:20.325Z,4.57
2018-07-12T15:55:54.182Z,3.67
2018-07-12T15:58:28.060Z,3.37
2018-07-12T16:01:01.871Z,3.30
2018-07-12T16:03:35.596Z,3.30
2018-07-12T16:06:09.956Z,3.17
2018-07-12T16:08:44.435Z,3.93
2018-07-12T16:11:18.201Z,4.63
2018-07-12T16:13:51.954Z,3.20
2018-07-12T16:16:25.788Z,3.73
2018-07-12T16:18:59.600Z,3.10
2018-07-12T16:21:33.330Z,4.90
2018-07-12T16:24:07.890Z,3.70
2018-07-12T16:26:41.690Z,3.90
2018-07-12T16:29:16.206Z,3.10
2018-07-12T16:31:49.936Z,3.53
2018-07-12T16:34:24.545Z,3.40
2018-07-12T16:36:58.328Z,2.80
2018-07-12T16:39:32.863Z,3.33
2018-07-12T16:42:06.521Z,3.53
2018-07-12T16:44:41.002Z,3.70
2018-07-12T16:47:14.604Z,2.90
2018-07-12T16:49:48.324Z,3.27
2018-07-12T16:52:22.199Z,3.90
2018-07-12T16:54:56.775Z,3.10
2018-07-12T16:57:30.653Z,3.40
2018-07-12T17:00:05.228Z,3.53
2018-07-12T17:02:39.029Z,3.07
2018-07-12T17:05:12.824Z,3.73
2018-07-12T17:07:46.796Z,3.60
2018-07-12T17:10:21.299Z,7.43
2018-07-12T17:12:54.990Z,3.40
2018-07-12T17:15:28.947Z,3.93
2018-07-12T17:18:02.791Z,4.60
2018-07-12T17:20:36.578Z,4.50
2018-07-12T17:23:10.291Z,4.63
2018-07-12T17:25:44.100Z,3.20
2018-07-12T17:28:18.702Z,3.07
2018-07-12T17:30:52.469Z,3.30
2018-07-12T17:33:27.048Z,3.47
2018-07-12T17:36:01.365Z,3.17
2018-07-12T17:38:35.868Z,3.93
2018-07-12T17:41:10.557Z,4.40
2018-07-12T17:43:44.117Z,3.60
2018-07-12T17:46:17.843Z,3.10
2018-07-12T17:48:51.721Z,2.90
2018-07-12T17:51:25.562Z,4.47
2018-07-12T17:53:59.237Z,3.30
2018-07-12T17:56:33.836Z,3.57
2018-07-12T17:59:07.594Z,3.83
2018-07-12T18:01:41.444Z,3.40
2018-07-12T18:04:15.063Z,3.53
2018-07-12T18:06:48.869Z,3.13
2018-07-12T18:09:23.336Z,4.53
2018-07-12T18:11:57.703Z,3.37
2018-07-12T18:14:31.424Z,4.10
2018-07-12T18:17:05.077Z,3.20
2018-07-12T18:19:39.696Z,3.33
2018-07-12T18:22:13.534Z,3.77
2018-07-12T18:24:48.073Z,3.40
2018-07-12T18:27:22.552Z,4.37
2018-07-12T18:29:56.234Z,4.13
2018-07-12T18:32:30.105Z,4.20
2018-07-12T18:35:03.821Z,3.77
2018-07-12T18:37:37.931Z,5.10
2018-07-12T18:40:11.644Z,3.57
2018-07-12T18:42:46.240Z,3.77
2018-07-12T18:45:20.969Z,3.53
2018-07-12T18:47:54.913Z,3.33
2018-07-12T18:50:28.545Z,3.40
2018-07-12T18:53:02.397Z,3.43
2018-07-12T18:55:37.072Z,3.23
2018-07-12T18:58:10.828Z,3.67
2018-07-12T19:00:45.121Z,4.27
2018-07-12T19:03:18.971Z,4.13
2018-07-12T19:05:52.739Z,4.50
2018-07-12T19:08:26.600Z,3.77
2018-07-12T19:11:00.488Z,3.40
2018-07-12T19:13:34.177Z,4.17
2018-07-12T19:16:08.085Z,4.27
2018-07-12T19:18:41.851Z,4.33
2018-07-12T19:21:15.756Z,4.20
2018-07-12T19:23:49.513Z,3.93
2018-07-12T19:26:24.188Z,4.90
2018-07-12T19:28:58.609Z,4.60
2018-07-12T19:31:32.512Z,5.00
2018-07-12T19:34:06.259Z,5.00
2018-07-12T19:36:40.872Z,4.93
2018-07-12T19:39:14.825Z,4.87
2018-07-12T19:41:48.578Z,5.07
2018-07-12T19:44:23.145Z,5.10
2018-07-12T19:46:56.917Z,5.40
2018-07-12T19:49:30.872Z,5.20
2018-07-12T19:52:05.475Z,5.20
2018-07-12T19:54:39.194Z,8.27
2018-07-12T19:57:12.984Z,7.63
2018-07-12T19:59:47.613Z,6.93
2018-07-12T20:02:21.495Z,6.70
2018-07-12T20:04:55.104Z,6.27
2018-07-12T20:07:29.624Z,7.50
2018-07-12T20:10:03.397Z,6.40
2018-07-12T20:12:38.079Z,6.57
2018-07-12T20:15:11.758Z,5.37
2018-07-12T20:17:46.295Z,5.97
2018-07-12T20:20:20.173Z,6.17
2018-07-12T20:22:53.910Z,6.00
2018-07-12T20:25:27.930Z,5.85
2018-07-12T20:28:02.303Z,6.20
2018-07-12T20:30:36.237Z,5.90
2018-07-12T20:33:10.121Z,5.43
2018-07-12T20:35:44.684Z,8.35
2018-07-12T20:38:18.632Z,6.10
2018-07-12T20:40:52.545Z,5.87
2018-07-12T20:43:26.863Z,4.78
2018-07-12T20:46:00.578Z,5.65
2018-07-12T20:48:35.033Z,4.70
2018-07-12T20:51:08.928Z,5.90
2018-07-12T20:53:42.648Z,5.32
2018-07-12T20:56:17.283Z,4.78
2018-07-12T20:58:51.129Z,5.47
2018-07-12T21:01:24.874Z,5.20
2018-07-12T21:03:58.661Z,5.50
2018-07-12T21:06:33.324Z,4.97
2018-07-12T21:09:07.160Z,5.75
2018-07-12T21:11:40.834Z,5.37
2018-07-12T21:14:15.437Z,5.07
2018-07-12T21:16:49.219Z,4.50
2018-07-12T21:19:23.789Z,5.37
2018-07-12T21:21:57.580Z,5.00
2018-07-12T21:24:32.114Z,6.05
2018-07-12T21:27:05.808Z,5.12
2018-07-12T21:29:39.579Z,5.15
2018-07-12T21:32:14.143Z,5.47
2018-07-12T21:34:49.079Z,5.37
2018-07-12T21:37:22.918Z,5.05
2018-07-12T21:39:56.823Z,5.30
2018-07-12T21:42:30.497Z,5.22
2018-07-12T21:45:04.345Z,8.55
2018-07-12T21:47:38.096Z,5.30
2018-07-12T21:50:12.516Z,5.12
2018-07-12T21:52:46.383Z,5.43
2018-07-12T21:55:20.932Z,4.75
2018-07-12T21:57:54.595Z,4.90
2018-07-12T22:00:28.372Z,5.07
2018-07-12T22:03:02.186Z,5.10
2018-07-12T22:05:36.671Z,4.60
2018-07-12T22:08:10.336Z,4.43
2018-07-12T22:10:44.880Z,5.28
2018-07-12T22:13:18.613Z,4.25
2018-07-12T22:15:52.453Z,4.40
2018-07-12T22:18:26.900Z,4.70
2018-07-12T22:21:00.567Z,4.78
2018-07-12T22:23:34.943Z,5.05
2018-07-12T22:26:09.512Z,5.50
2018-07-12T22:28:43.315Z,4.60
2018-07-12T22:31:16.989Z,4.85
2018-07-12T22:33:51.502Z,5.05
2018-07-12T22:36:25.198Z,4.40
2018-07-12T22:38:59.720Z,5.35
2018-07-12T22:41:34.265Z,4.40
2018-07-12T22:44:08.005Z,4.28
2018-07-12T22:46:41.841Z,5.28
2018-07-12T22:49:16.468Z,4.10
2018-07-12T22:51:50.147Z,4.78
2018-07-12T22:54:24.841Z,4.45
2018-07-12T22:56:58.849Z,4.78
2018-07-12T22:59:32.673Z,5.30
2018-07-12T23:02:06.462Z,5.10
2018-07-12T23:04:41.000Z,5.00
2018-07-12T23:07:14.633Z,4.62
2018-07-12T23:09:49.221Z,4.50
2018-07-12T23:12:22.917Z,5.80
2018-07-12T23:14:56.604Z,4.50
2018-07-12T23:17:30.304Z,4.72
2018-07-12T23:20:04.054Z,4.97
2018-07-12T23:22:37.836Z,5.15
2018-07-12T23:25:11.713Z,5.18
2018-07-12T23:27:45.494Z,4.80
2018-07-12T23:30:19.324Z,5.45
2018-07-12T23:32:53.745Z,5.03
2018-07-12T23:35:27.467Z,4.90
2018-07-12T23:38:02.800Z,4.57
2018-07-12T23:40:37.430Z,5.05
2018-07-12T23:43:11.200Z,5.12
2018-07-12T23:45:45.761Z,5.65
2018-07-12T23:48:19.628Z,5.95
2018-07-12T23:50:54.318Z,5.57
2018-07-12T23:53:27.932Z,5.55
2018-07-12T23:56:02.540Z,4.75
2018-07-12T23:58:37.137Z,5.30
